LGRP/RHO METAR and TAF weather

Enter ICAO airport designator
Station Type Date Time Source
LGRP METAR 2019/02/17 07:20 UTC NOAA

LGRP 170720Z VRB04KT 9999 FEW020 12/09 Q1020 NOSIG


Station Type Date Time Source
LGRP Decoded METAR 2019/02/17 07:20 UTC NOAA

Rhodes Airport , Greece (LGRP) 36-24N 028-05E 11M
Feb 17, 2019 - 02:20 AM EST / 2019.02.17 0720 UTC
Wind: Variable at 5 MPH (4 KT):0
Visibility: greater than 7 mile(s):0
Sky conditions: mostly clear
Temperature: 53 F (12 C)
Dew Point: 48 F (9 C)
Relative Humidity: 81%
Pressure (altimeter): 30.12 in. Hg (1020 hPa)
ob: LGRP 170720Z VRB04KT 9999 FEW020 12/09 Q1020 NOSIG
cycle: 7

Station Type Date Time Source
LGRP TAF 2019/02/17 06:14 UTC NOAA

TAF LGRP 170500Z 1706/1806 VRB05KT 9999 FEW010 SCT020 PROB40
TEMPO 1706/1715 5000 RA SCT008 FEW016TCU BKN020 PROB30
TEMPO 1706/1715 3000 TSRA SCT008 FEW018CB BKN020
BECMG 1714/1716 26015KT


Example: see airport list